Time;durP1;ratioP1;P1;durP2;ratioP2;P2;SDS_P1;SDS_P2;PMS_P1;PMS_P2;Temp;Humidity;BMP_temperature;BMP_pressure;BME280_temperature;BME280_humidity;BME280_pressure;Samples;Min_cycle;Max_cycle;Signal;HPM_P1;HPM_P2
2022/08/21 00:00:39;;;;;;;1086.13;556.97;;;;;;;;;;5110938;28;20055;-71
2022/08/21 00:03:06;;;;;;;1090.65;540.55;;;;;;;;;;5110912;28;20058;-71
2022/08/21 00:05:45;;;;;;;1120.82;534.85;;;;;;;;;;5110658;27;20419;-70
2022/08/21 00:08:11;;;;;;;1127.63;518.22;;;;;;;;;;5110979;28;20020;-70
2022/08/21 00:11:58;;;;;;;819.63;545.35;;;;;;;;;;5111912;27;20400;-70
2022/08/21 00:15:40;;;;;;;772.05;542.03;;;;;;;;;;5111695;27;20389;-71
2022/08/21 00:18:07;;;;;;;739.03;515.67;;;;;;;;;;5111375;28;20023;-71
2022/08/21 00:20:34;;;;;;;698.58;467.17;;;;;;;;;;5110639;28;20443;-71
2022/08/21 00:23:00;;;;;;;684.47;432.88;;;;;;;;;;5111005;28;20450;-70
2022/08/21 00:25:27;;;;;;;718.95;499.17;;;;;;;;;;5110875;28;20107;-71
2022/08/21 00:29:02;;;;;;;727.63;479.25;;;;;;;;;;5111388;27;20396;-71
2022/08/21 00:33:32;;;;;;;698.72;417.75;;;;;;;;;;5111096;27;20754;-71
2022/08/21 00:37:43;;;;;;;733.50;488.70;;;;;;;;;;5111125;27;20412;-71
2022/08/21 00:43:14;;;;;;;743.92;519.28;;;;;;;;;;5111747;27;20422;-72
2022/08/21 00:45:40;;;;;;;734.65;517.75;;;;;;;;;;5109787;28;20039;-71
2022/08/21 00:49:14;;;;;;;670.65;409.92;;;;;;;;;;5110793;27;20571;-70
2022/08/21 00:51:49;;;;;;;704.80;414.30;;;;;;;;;;5111183;28;20056;-70
2022/08/21 00:54:15;;;;;;;703.65;429.52;;;;;;;;;;5111570;28;20082;-70
2022/08/21 00:58:14;;;;;;;688.40;407.35;;;;;;;;;;5111709;27;20385;-71
2022/08/21 01:00:41;;;;;;;687.08;417.90;;;;;;;;;;5111612;28;20414;-71
2022/08/21 01:03:11;;;;;;;726.03;453.40;;;;;;;;;;5110759;28;20047;-70
2022/08/21 01:07:09;;;;;;;678.83;396.50;;;;;;;;;;5111709;27;20786;-71
2022/08/21 01:12:03;;;;;;;745.53;529.85;;;;;;;;;;5111630;27;20117;-70
2022/08/21 01:14:54;;;;;;;673.83;412.73;;;;;;;;;;5111142;27;20505;-70
2022/08/21 01:21:23;;;;;;;649.20;385.65;;;;;;;;;;5111981;27;20392;-70
2022/08/21 01:23:52;;;;;;;712.28;465.30;;;;;;;;;;5110743;28;20034;-70
2022/08/21 01:26:19;;;;;;;685.85;433.52;;;;;;;;;;5111123;28;20020;-70
2022/08/21 01:29:00;;;;;;;667.75;402.92;;;;;;;;;;5111008;28;20030;-70
2022/08/21 01:31:27;;;;;;;652.33;402.08;;;;;;;;;;5110640;28;20024;-70
2022/08/21 01:33:54;;;;;;;655.60;388.35;;;;;;;;;;5109620;28;20023;-71
2022/08/21 01:37:54;;;;;;;649.28;389.35;;;;;;;;;;5111024;27;20454;-71
2022/08/21 01:40:21;;;;;;;648.92;387.48;;;;;;;;;;5111124;28;20028;-71
2022/08/21 01:42:48;;;;;;;647.17;389.05;;;;;;;;;;5111017;28;20020;-70
2022/08/21 01:45:15;;;;;;;645.75;385.95;;;;;;;;;;5109396;28;20023;-70
2022/08/21 01:47:59;;;;;;;631.45;370.55;;;;;;;;;;5111197;27;20384;-71
2022/08/21 01:52:19;;;;;;;643.15;389.88;;;;;;;;;;5110848;27;20458;-70
2022/08/21 01:56:36;;;;;;;644.40;394.80;;;;;;;;;;5105698;27;1417577;-70
2022/08/21 01:59:02;;;;;;;644.35;373.92;;;;;;;;;;5131215;28;20035;-71
2022/08/21 02:01:28;;;;;;;632.67;375.83;;;;;;;;;;5131707;28;20024;-71
2022/08/21 02:10:02;;;;;;;661.15;397.83;;;;;;;;;;5111807;27;20589;-70
2022/08/21 02:14:30;;;;;;;648.17;377.00;;;;;;;;;;5111353;27;20981;-70
2022/08/21 02:16:56;;;;;;;647.55;385.30;;;;;;;;;;5111095;28;20027;-70
2022/08/21 02:23:13;;;;;;;638.50;374.33;;;;;;;;;;5111257;27;20568;-70
2022/08/21 02:26:26;;;;;;;622.60;368.85;;;;;;;;;;5110928;27;20428;-70
2022/08/21 02:28:52;;;;;;;628.88;384.17;;;;;;;;;;5111024;28;20020;-70
2022/08/21 02:31:18;;;;;;;628.72;368.13;;;;;;;;;;5111299;28;20495;-70
2022/08/21 02:34:08;;;;;;;632.42;379.00;;;;;;;;;;5111096;27;20928;-70
2022/08/21 02:38:06;;;;;;;656.80;395.80;;;;;;;;;;5111338;27;20774;-71
2022/08/21 02:40:34;;;;;;;669.70;392.33;;;;;;;;;;5110639;28;20030;-70
2022/08/21 02:43:02;;;;;;;665.30;398.25;;;;;;;;;;5111288;28;20028;-70
2022/08/21 02:45:28;;;;;;;662.63;391.27;;;;;;;;;;5111612;28;20051;-70
2022/08/21 02:47:56;;;;;;;670.67;380.88;;;;;;;;;;5110571;28;20103;-70
2022/08/21 02:50:30;;;;;;;673.20;386.75;;;;;;;;;;5109662;28;20028;-70
2022/08/21 02:56:09;;;;;;;671.92;396.88;;;;;;;;;;5110812;27;20388;-70
2022/08/21 03:00:16;;;;;;;586.88;355.58;;;;;;;;;;5111547;27;20393;-71
2022/08/21 03:05:47;;;;;;;608.83;350.92;;;;;;;;;;5111328;27;20573;-70
2022/08/21 03:09:38;;;;;;;604.58;353.50;;;;;;;;;;5110931;27;20442;-70
2022/08/21 03:12:04;;;;;;;629.65;381.48;;;;;;;;;;5111201;28;20027;-70
2022/08/21 03:15:44;;;;;;;617.50;369.80;;;;;;;;;;5110941;27;20989;-70
2022/08/21 03:18:11;;;;;;;619.08;350.52;;;;;;;;;;5111167;28;20077;-70
2022/08/21 03:20:55;;;;;;;630.88;370.83;;;;;;;;;;5111406;27;20393;-70
2022/08/21 03:23:22;;;;;;;637.30;379.23;;;;;;;;;;5110728;28;20020;-70
2022/08/21 03:26:11;;;;;;;619.50;371.33;;;;;;;;;;5111502;27;20405;-70
2022/08/21 03:29:40;;;;;;;620.92;366.48;;;;;;;;;;5110937;27;20400;-70
2022/08/21 03:34:57;;;;;;;605.95;337.30;;;;;;;;;;5111585;27;21065;-70
2022/08/21 03:37:24;;;;;;;596.53;354.38;;;;;;;;;;5110975;28;20107;-70
2022/08/21 03:39:50;;;;;;;597.47;353.45;;;;;;;;;;5111072;28;20088;-71
2022/08/21 03:42:17;;;;;;;595.33;353.73;;;;;;;;;;5111043;28;20357;-70
2022/08/21 03:46:51;;;;;;;604.42;333.45;;;;;;;;;;5111616;27;20899;-71
2022/08/21 03:49:18;;;;;;;604.20;335.63;;;;;;;;;;5111084;28;20028;-70
2022/08/21 03:53:24;;;;;;;593.90;335.92;;;;;;;;;;5111377;27;20540;-71
2022/08/21 03:55:52;;;;;;;590.15;346.70;;;;;;;;;;5111039;28;20527;-71
2022/08/21 03:59:16;;;;;;;581.53;350.30;;;;;;;;;;5070210;28;21057;-70
2022/08/21 04:01:51;;;;;;;600.38;355.70;;;;;;;;;;5071002;28;20052;-71
2022/08/21 04:04:17;;;;;;;601.55;342.30;;;;;;;;;;5070525;28;20067;-70
2022/08/21 04:07:01;;;;;;;668.03;386.83;;;;;;;;;;5111917;27;20541;-70
2022/08/21 04:09:27;;;;;;;678.65;373.45;;;;;;;;;;5111032;28;20109;-70
2022/08/21 04:11:54;;;;;;;696.17;391.08;;;;;;;;;;5110646;28;20361;-70
2022/08/21 04:17:19;;;;;;;679.72;357.13;;;;;;;;;;5173518;27;20110;-71
2022/08/21 04:19:46;;;;;;;728.47;444.08;;;;;;;;;;5151825;27;20019;-71
2022/08/21 04:22:12;;;;;;;750.33;445.35;;;;;;;;;;5152253;27;20068;-70
2022/08/21 04:24:38;;;;;;;766.97;487.13;;;;;;;;;;5152229;27;20094;-71
2022/08/21 04:27:27;;;;;;;787.78;509.10;;;;;;;;;;5110704;27;21003;-70
2022/08/21 04:31:02;;;;;;;812.03;518.50;;;;;;;;;;5111940;27;20446;-71
2022/08/21 04:33:28;;;;;;;806.92;510.10;;;;;;;;;;5110760;28;20140;-71
2022/08/21 04:36:04;;;;;;;906.88;517.25;;;;;;;;;;5111231;27;20423;-71
2022/08/21 04:39:10;;;;;;;883.17;513.40;;;;;;;;;;5111274;27;20380;-71
2022/08/21 04:41:37;;;;;;;870.42;523.00;;;;;;;;;;5110645;28;20032;-71
2022/08/21 04:46:52;;;;;;;850.83;525.65;;;;;;;;;;5090972;27;20386;-70
2022/08/21 04:51:08;;;;;;;861.50;522.65;;;;;;;;;;5111187;27;20404;-71
2022/08/21 04:53:37;;;;;;;858.85;524.60;;;;;;;;;;5110809;28;20047;-71
2022/08/21 04:56:08;;;;;;;823.85;512.65;;;;;;;;;;5109714;28;20484;-70
2022/08/21 05:00:42;;;;;;;860.30;520.35;;;;;;;;;;5111375;27;20400;-71
2022/08/21 05:03:08;;;;;;;861.90;527.67;;;;;;;;;;5111231;28;20024;-71
2022/08/21 05:05:35;;;;;;;842.78;523.22;;;;;;;;;;5111331;28;20591;-71
2022/08/21 05:09:40;;;;;;;9.20;5.03;;;;;;;;;;5110781;27;20397;-71
2022/08/21 05:14:15;;;;;;;9.18;5.18;;;;;;;;;;5111677;27;20405;-71
2022/08/21 05:17:27;;;;;;;7.97;4.22;;;;;;;;;;5111526;27;20553;-71
2022/08/21 05:19:53;;;;;;;7.25;4.47;;;;;;;;;;5111152;28;20111;-71
2022/08/21 05:23:44;;;;;;;6.72;4.00;;;;;;;;;;5110889;27;20408;-71
2022/08/21 05:26:59;;;;;;;7.45;4.78;;;;;;;;;;5111416;27;20388;-71
2022/08/21 05:30:20;;;;;;;8.45;4.47;;;;;;;;;;5070264;28;20388;-71
2022/08/21 05:34:54;;;;;;;9.93;5.43;;;;;;;;;;5111746;27;21060;-71
2022/08/21 05:37:20;;;;;;;7.45;4.57;;;;;;;;;;5110805;28;20036;-71
2022/08/21 05:39:46;;;;;;;7.78;5.18;;;;;;;;;;5111050;28;20028;-72
2022/08/21 05:42:53;;;;;;;7.53;4.85;;;;;;;;;;5111453;27;20401;-71
2022/08/21 05:45:19;;;;;;;8.25;4.80;;;;;;;;;;5111238;28;20032;-70
2022/08/21 05:47:45;;;;;;;8.73;4.65;;;;;;;;;;5111050;28;20472;-71
2022/08/21 05:50:12;;;;;;;8.93;5.03;;;;;;;;;;5110806;28;20020;-71
2022/08/21 05:52:38;;;;;;;9.20;5.15;;;;;;;;;;5111002;28;20026;-71
2022/08/21 05:55:04;;;;;;;7.93;4.43;;;;;;;;;;5111012;28;20024;-72
2022/08/21 05:57:30;;;;;;;10.60;4.65;;;;;;;;;;5110506;28;20028;-71
2022/08/21 06:01:30;;;;;;;8.70;4.32;;;;;;;;;;5111595;27;20560;-71
2022/08/21 06:03:56;;;;;;;8.55;4.10;;;;;;;;;;5110711;28;20024;-71
2022/08/21 06:07:25;;;;;;;7.00;3.95;;;;;;;;;;5111934;27;20546;-72
2022/08/21 06:09:51;;;;;;;6.25;3.97;;;;;;;;;;5111137;28;20046;-71
2022/08/21 06:13:19;;;;;;;8.35;4.57;;;;;;;;;;5111872;27;20564;-71
2022/08/21 06:15:45;;;;;;;7.90;3.92;;;;;;;;;;5109822;28;20484;-71
2022/08/21 06:18:12;;;;;;;6.35;3.55;;;;;;;;;;5110540;28;20487;-72
2022/08/21 06:20:38;;;;;;;5.97;3.70;;;;;;;;;;5111190;28;20024;-71
2022/08/21 06:23:50;;;;;;;6.03;3.28;;;;;;;;;;5111465;27;20580;-71
2022/08/21 06:26:16;;;;;;;5.07;2.90;;;;;;;;;;5110665;28;20476;-71
2022/08/21 06:33:38;;;;;;;4.45;2.70;;;;;;;;;;5110966;27;20989;-71
2022/08/21 06:36:04;;;;;;;7.25;2.92;;;;;;;;;;5111085;28;20107;-72
2022/08/21 06:41:54;;;;;;;8.27;3.20;;;;;;;;;;5111611;27;20109;-71
2022/08/21 06:44:21;;;;;;;7.45;3.40;;;;;;;;;;5109806;28;20504;-71
2022/08/21 06:46:47;;;;;;;5.13;2.75;;;;;;;;;;5110578;28;20430;-71
2022/08/21 06:51:05;;;;;;;4.32;2.65;;;;;;;;;;5111413;27;20543;-71
2022/08/21 06:53:32;;;;;;;5.95;3.20;;;;;;;;;;5110969;28;20024;-72
2022/08/21 06:56:09;;;;;;;6.38;2.92;;;;;;;;;;5111631;27;20557;-73
2022/08/21 06:59:32;;;;;;;7.00;3.25;;;;;;;;;;5111661;27;20569;-71
2022/08/21 07:02:08;;;;;;;5.28;2.85;;;;;;;;;;5110854;27;20986;-72
2022/08/21 07:04:34;;;;;;;5.00;3.08;;;;;;;;;;5111741;28;20097;-72
2022/08/21 07:07:00;;;;;;;6.35;3.97;;;;;;;;;;5111134;28;20031;-72
2022/08/21 07:09:27;;;;;;;6.95;3.83;;;;;;;;;;5110503;28;20112;-72
2022/08/21 07:11:54;;;;;;;6.70;3.10;;;;;;;;;;5111127;28;20434;-72
2022/08/21 07:14:20;;;;;;;7.43;3.47;;;;;;;;;;5110635;28;20077;-73
2022/08/21 07:18:01;;;;;;;6.03;3.22;;;;;;;;;;5070982;28;20387;-73
2022/08/21 07:20:28;;;;;;;7.85;3.95;;;;;;;;;;5070848;28;20025;-73
2022/08/21 07:23:53;;;;;;;8.43;4.35;;;;;;;;;;5111421;27;20614;-72
2022/08/21 07:27:31;;;;;;;6.60;3.95;;;;;;;;;;5111488;27;20392;-74
2022/08/21 07:31:49;;;;;;;6.10;3.97;;;;;;;;;;5111999;27;20614;-73
2022/08/21 07:35:32;;;;;;;10.52;3.55;;;;;;;;;;5093955;27;20394;-72
2022/08/21 07:37:59;;;;;;;7.28;3.97;;;;;;;;;;5090868;28;20028;-72
2022/08/21 07:41:28;;;;;;;8.23;4.50;;;;;;;;;;5152796;27;20211;-71
2022/08/21 07:43:57;;;;;;;7.25;4.25;;;;;;;;;;5131257;28;20032;-72
2022/08/21 07:47:20;;;;;;;11.27;4.80;;;;;;;;;;5111693;27;20451;-72
2022/08/21 07:49:46;;;;;;;8.45;3.70;;;;;;;;;;5109359;28;20031;-72
2022/08/21 07:53:37;;;;;;;6.47;3.67;;;;;;;;;;5070997;28;20391;-72
2022/08/21 07:56:32;;;;;;;6.78;3.85;;;;;;;;;;5110807;27;20393;-73
2022/08/21 07:59:43;;;;;;;7.45;3.70;;;;;;;;;;5111476;27;20380;-72
2022/08/21 08:05:52;;;;;;;6.38;3.22;;;;;;;;;;5111592;27;20401;-72
2022/08/21 08:08:33;;;;;;;5.22;2.90;;;;;;;;;;5111439;27;20577;-72
2022/08/21 08:12:44;;;;;;;6.57;3.08;;;;;;;;;;5112886;27;20416;-72
2022/08/21 08:15:12;;;;;;;6.22;3.10;;;;;;;;;;5110261;28;20030;-72
2022/08/21 08:17:38;;;;;;;7.15;2.78;;;;;;;;;;5107049;28;20024;-72
2022/08/21 08:20:06;;;;;;;6.65;3.33;;;;;;;;;;5090639;28;20029;-72
2022/08/21 08:22:34;;;;;;;8.30;3.03;;;;;;;;;;5091049;28;20028;-72
2022/08/21 08:25:01;;;;;;;6.90;2.65;;;;;;;;;;5088700;28;20024;-72
2022/08/21 08:27:27;;;;;;;5.20;2.47;;;;;;;;;;5090413;28;20104;-72
2022/08/21 08:31:55;;;;;;;6.65;2.83;;;;;;;;;;5111287;27;20416;-72
2022/08/21 08:34:22;;;;;;;4.63;2.30;;;;;;;;;;5105826;28;20410;-73
2022/08/21 08:38:37;;;;;;;11.48;3.80;;;;;;;;;;5104980;27;20676;-73
2022/08/21 08:41:14;;;;;;;7.13;2.83;;;;;;;;;;5068232;28;20604;-72
2022/08/21 08:45:26;;;;;;;11.02;3.28;;;;;;;;;;5108896;27;20422;-72
2022/08/21 08:47:57;;;;;;;4.55;2.35;;;;;;;;;;5108731;28;20512;-72
2022/08/21 08:50:46;;;;;;;8.02;3.25;;;;;;;;;;5109196;28;20430;-73
2022/08/21 08:53:16;;;;;;;6.00;3.08;;;;;;;;;;5100511;28;20097;-73
2022/08/21 08:55:43;;;;;;;7.13;2.70;;;;;;;;;;5108837;28;20501;-72
2022/08/21 08:58:15;;;;;;;7.65;4.10;;;;;;;;;;5108711;28;20031;-73
2022/08/21 09:02:12;;;;;;;8.35;2.95;;;;;;;;;;5109083;27;20593;-72
2022/08/21 09:04:39;;;;;;;5.85;2.63;;;;;;;;;;5109286;28;20028;-73
2022/08/21 09:09:27;;;;;;;4.70;2.10;;;;;;;;;;5109954;27;20569;-72
2022/08/21 09:12:00;;;;;;;8.52;2.95;;;;;;;;;;5111282;28;20454;-73
2022/08/21 09:16:56;;;;;;;4.28;2.38;;;;;;;;;;5111651;27;20414;-73
2022/08/21 09:19:38;;;;;;;7.93;2.85;;;;;;;;;;5103217;28;20068;-72
2022/08/21 09:24:15;;;;;;;5.47;2.55;;;;;;;;;;5111974;27;20405;-72
2022/08/21 09:26:46;;;;;;;10.68;3.80;;;;;;;;;;5111251;28;20031;-72
2022/08/21 09:29:13;;;;;;;6.43;2.72;;;;;;;;;;5110787;28;20027;-72
2022/08/21 09:31:39;;;;;;;9.20;2.70;;;;;;;;;;5111136;28;20054;-72
2022/08/21 09:35:58;;;;;;;5.15;2.72;;;;;;;;;;5111147;27;20404;-72
2022/08/21 09:38:34;;;;;;;5.53;2.50;;;;;;;;;;5111517;28;20042;-71
2022/08/21 09:41:05;;;;;;;7.88;2.53;;;;;;;;;;5111260;28;20024;-72
2022/08/21 09:43:32;;;;;;;7.03;3.17;;;;;;;;;;5110758;28;20095;-72
2022/08/21 09:47:40;;;;;;;9.43;4.05;;;;;;;;;;5111747;27;20570;-72
2022/08/21 09:52:26;;;;;;;6.70;3.13;;;;;;;;;;5111904;27;20562;-72
2022/08/21 09:54:54;;;;;;;12.02;4.07;;;;;;;;;;5111163;28;20023;-73
2022/08/21 09:57:39;;;;;;;7.32;3.40;;;;;;;;;;5110712;28;20030;-73
2022/08/21 10:00:25;;;;;;;7.13;4.45;;;;;;;;;;5111415;28;20020;-73
2022/08/21 10:02:51;;;;;;;7.78;3.78;;;;;;;;;;5111088;28;20499;-73
2022/08/21 10:05:22;;;;;;;11.68;5.85;;;;;;;;;;5110890;28;20032;-73
2022/08/21 10:07:49;;;;;;;13.02;6.10;;;;;;;;;;5110888;28;20020;-72
2022/08/21 10:10:15;;;;;;;12.73;6.63;;;;;;;;;;5110358;28;20028;-72
2022/08/21 10:12:46;;;;;;;13.52;7.03;;;;;;;;;;5109418;28;20476;-72
2022/08/21 10:15:24;;;;;;;9.15;6.13;;;;;;;;;;5110921;28;20028;-72
2022/08/21 10:17:57;;;;;;;10.52;5.40;;;;;;;;;;5110302;28;20031;-72
2022/08/21 10:20:31;;;;;;;12.95;6.38;;;;;;;;;;5110656;28;20020;-72
2022/08/21 10:23:12;;;;;;;10.55;6.07;;;;;;;;;;5110912;28;20072;-72
2022/08/21 10:25:46;;;;;;;15.25;6.03;;;;;;;;;;5110231;28;20108;-73
2022/08/21 10:28:17;;;;;;;10.32;5.95;;;;;;;;;;5110545;28;20464;-72
2022/08/21 10:30:50;;;;;;;11.48;6.30;;;;;;;;;;5109173;28;20496;-72
2022/08/21 10:33:17;;;;;;;11.15;5.78;;;;;;;;;;5109970;28;20028;-73
2022/08/21 10:35:50;;;;;;;12.63;6.07;;;;;;;;;;5110369;28;20027;-73
2022/08/21 10:38:35;;;;;;;11.65;6.13;;;;;;;;;;5110246;28;20093;-73
2022/08/21 10:41:04;;;;;;;12.45;6.72;;;;;;;;;;5108965;28;20020;-73
2022/08/21 10:43:36;;;;;;;9.90;6.40;;;;;;;;;;5108974;28;20043;-73
2022/08/21 10:46:17;;;;;;;14.35;6.20;;;;;;;;;;5109868;28;20027;-73
2022/08/21 10:48:48;;;;;;;9.70;5.95;;;;;;;;;;5110317;28;20023;-73
2022/08/21 10:51:25;;;;;;;11.18;6.72;;;;;;;;;;5109914;28;20519;-72
2022/08/21 10:54:06;;;;;;;11.77;7.03;;;;;;;;;;5109649;28;20022;-72
2022/08/21 10:56:34;;;;;;;10.32;6.95;;;;;;;;;;5110238;28;20027;-72
2022/08/21 10:59:03;;;;;;;14.60;6.53;;;;;;;;;;5109914;28;20067;-72
2022/08/21 11:01:33;;;;;;;10.00;6.15;;;;;;;;;;5109368;28;20031;-73
2022/08/21 11:04:20;;;;;;;12.20;5.88;;;;;;;;;;5096006;28;20020;-73
2022/08/21 11:07:06;;;;;;;11.48;6.25;;;;;;;;;;5095792;28;20035;-73
2022/08/21 11:09:32;;;;;;;11.40;5.95;;;;;;;;;;5096448;28;20464;-72
2022/08/21 11:12:05;;;;;;;12.63;7.43;;;;;;;;;;5096045;28;20032;-73
2022/08/21 11:14:42;;;;;;;11.07;6.13;;;;;;;;;;5095718;28;20024;-73
2022/08/21 11:17:09;;;;;;;12.93;6.28;;;;;;;;;;5096157;28;20031;-73
2022/08/21 11:19:43;;;;;;;7.88;5.43;;;;;;;;;;5096256;28;20047;-73
2022/08/21 11:22:14;;;;;;;12.20;5.95;;;;;;;;;;5094307;28;20059;-73
2022/08/21 11:24:58;;;;;;;10.57;5.93;;;;;;;;;;5096084;28;20024;-73
2022/08/21 11:27:27;;;;;;;9.45;5.60;;;;;;;;;;5095412;28;20522;-73
2022/08/21 11:29:55;;;;;;;8.45;5.45;;;;;;;;;;5095863;28;20028;-73
2022/08/21 11:32:33;;;;;;;9.20;5.68;;;;;;;;;;5095956;28;20065;-73
2022/08/21 11:35:22;;;;;;;11.15;5.50;;;;;;;;;;5095327;28;20016;-73
2022/08/21 11:37:54;;;;;;;8.18;4.97;;;;;;;;;;5096181;28;20472;-74
2022/08/21 11:40:32;;;;;;;9.90;6.25;;;;;;;;;;5095630;28;20027;-74
2022/08/21 11:43:16;;;;;;;9.98;5.80;;;;;;;;;;5093812;28;20392;-73
2022/08/21 11:45:46;;;;;;;10.40;5.13;;;;;;;;;;5095835;28;20495;-74
2022/08/21 11:48:23;;;;;;;11.02;4.63;;;;;;;;;;5095419;28;20099;-74
2022/08/21 11:50:50;;;;;;;11.65;5.32;;;;;;;;;;5095538;28;20472;-73
2022/08/21 11:53:20;;;;;;;8.65;4.40;;;;;;;;;;5095382;28;20024;-73
2022/08/21 11:55:55;;;;;;;9.82;4.65;;;;;;;;;;5094898;28;20108;-74
2022/08/21 11:58:24;;;;;;;9.10;4.90;;;;;;;;;;5095305;28;20012;-74
2022/08/21 12:00:54;;;;;;;10.05;4.88;;;;;;;;;;5095190;28;20028;-74
2022/08/21 12:03:23;;;;;;;10.85;4.47;;;;;;;;;;5095105;28;20378;-74
2022/08/21 12:05:54;;;;;;;10.50;4.50;;;;;;;;;;5095385;28;20024;-74
2022/08/21 12:08:38;;;;;;;8.60;4.40;;;;;;;;;;5095091;28;20113;-74
2022/08/21 12:11:10;;;;;;;8.10;4.22;;;;;;;;;;5094739;28;20115;-74
2022/08/21 12:13:41;;;;;;;8.45;3.78;;;;;;;;;;5094337;28;20032;-74
2022/08/21 12:16:07;;;;;;;9.80;3.78;;;;;;;;;;5093463;28;20024;-74
2022/08/21 12:18:33;;;;;;;8.60;3.92;;;;;;;;;;5095024;28;20035;-73
2022/08/21 12:21:01;;;;;;;11.90;4.07;;;;;;;;;;5094749;28;20024;-74
2022/08/21 12:23:33;;;;;;;11.73;3.75;;;;;;;;;;5093517;28;20412;-73
2022/08/21 12:26:01;;;;;;;8.10;3.70;;;;;;;;;;5094741;28;20365;-74
2022/08/21 12:28:28;;;;;;;8.60;4.10;;;;;;;;;;5094627;28;20043;-74
2022/08/21 12:30:55;;;;;;;8.52;3.90;;;;;;;;;;5094088;28;20452;-74
2022/08/21 12:33:24;;;;;;;8.52;4.32;;;;;;;;;;5094565;28;20023;-74
2022/08/21 12:35:52;;;;;;;7.00;3.53;;;;;;;;;;5094579;28;20028;-74
2022/08/21 12:38:21;;;;;;;9.70;3.85;;;;;;;;;;5094515;28;20073;-74
2022/08/21 12:40:53;;;;;;;6.63;3.78;;;;;;;;;;5094498;28;20043;-74
2022/08/21 12:43:42;;;;;;;6.75;3.65;;;;;;;;;;5094407;28;20048;-74
2022/08/21 12:46:16;;;;;;;10.18;3.13;;;;;;;;;;5086000;28;20075;-74
2022/08/21 12:48:52;;;;;;;8.43;2.95;;;;;;;;;;5094492;28;20107;-74
2022/08/21 12:51:23;;;;;;;5.63;3.13;;;;;;;;;;5094015;28;20508;-74
2022/08/21 12:53:54;;;;;;;8.40;3.25;;;;;;;;;;5093818;28;20028;-74
2022/08/21 12:56:21;;;;;;;6.90;2.87;;;;;;;;;;5094220;28;20502;-74
2022/08/21 12:58:49;;;;;;;6.57;2.83;;;;;;;;;;5093635;28;20248;-74
2022/08/21 13:01:21;;;;;;;5.40;2.60;;;;;;;;;;5094051;28;20070;-73
2022/08/21 13:03:48;;;;;;;6.80;2.75;;;;;;;;;;5094154;28;20024;-74
2022/08/21 13:06:16;;;;;;;5.60;2.35;;;;;;;;;;5093985;28;20103;-74
2022/08/21 13:08:43;;;;;;;6.78;2.90;;;;;;;;;;5094037;28;20019;-74
2022/08/21 13:11:10;;;;;;;6.05;3.08;;;;;;;;;;5093845;28;20495;-74
2022/08/21 13:13:36;;;;;;;7.45;2.67;;;;;;;;;;5093369;28;20036;-74
2022/08/21 13:16:04;;;;;;;6.40;2.33;;;;;;;;;;5093818;28;20503;-74
2022/08/21 13:18:32;;;;;;;6.38;2.53;;;;;;;;;;5093755;28;20068;-74
2022/08/21 13:21:07;;;;;;;9.27;2.47;;;;;;;;;;5093361;28;20072;-75
2022/08/21 13:23:33;;;;;;;5.13;2.50;;;;;;;;;;5093727;28;20054;-74
2022/08/21 13:26:00;;;;;;;7.22;2.63;;;;;;;;;;5092100;28;20024;-74
2022/08/21 13:28:34;;;;;;;8.55;2.78;;;;;;;;;;5093234;28;20031;-74
2022/08/21 13:31:01;;;;;;;6.57;2.85;;;;;;;;;;5093771;28;20042;-74
2022/08/21 13:33:30;;;;;;;6.75;2.38;;;;;;;;;;5093540;28;20100;-74
2022/08/21 13:35:56;;;;;;;4.32;2.08;;;;;;;;;;5093140;28;20406;-74
2022/08/21 13:38:25;;;;;;;6.47;2.60;;;;;;;;;;5093836;28;20028;-75
2022/08/21 13:41:21;;;;;;;5.57;2.75;;;;;;;;;;5093290;28;20024;-74
2022/08/21 13:43:50;;;;;;;5.15;2.53;;;;;;;;;;5080642;28;20112;-74
2022/08/21 13:46:18;;;;;;;4.82;2.47;;;;;;;;;;5093353;28;20537;-74
2022/08/21 13:48:44;;;;;;;6.13;2.90;;;;;;;;;;5093161;28;20071;-74
2022/08/21 13:51:10;;;;;;;5.70;2.83;;;;;;;;;;5093197;28;20048;-74
2022/08/21 13:53:45;;;;;;;4.95;2.10;;;;;;;;;;5093870;28;20069;-74
2022/08/21 13:56:22;;;;;;;6.13;2.85;;;;;;;;;;5092783;28;20028;-74
2022/08/21 13:58:48;;;;;;;7.47;2.80;;;;;;;;;;5093315;28;20024;-74
2022/08/21 14:01:20;;;;;;;7.60;2.90;;;;;;;;;;5093259;28;20136;-74
2022/08/21 14:03:48;;;;;;;5.90;2.90;;;;;;;;;;5091592;28;20049;-74
2022/08/21 14:06:37;;;;;;;4.40;2.50;;;;;;;;;;5093644;28;20027;-74
2022/08/21 14:09:10;;;;;;;6.90;2.60;;;;;;;;;;5085053;28;20036;-74
2022/08/21 14:11:37;;;;;;;11.07;3.22;;;;;;;;;;5093358;28;20123;-74
2022/08/21 14:14:05;;;;;;;5.40;2.35;;;;;;;;;;5093089;28;20021;-74
2022/08/21 14:16:53;;;;;;;9.73;2.60;;;;;;;;;;5092729;28;20103;-74
2022/08/21 14:19:22;;;;;;;4.78;2.63;;;;;;;;;;5093213;28;20096;-74
2022/08/21 14:21:48;;;;;;;7.10;2.30;;;;;;;;;;5092992;28;20062;-74
2022/08/21 14:24:23;;;;;;;4.50;2.08;;;;;;;;;;5092791;28;20023;-73
2022/08/21 14:26:51;;;;;;;5.38;2.30;;;;;;;;;;5093373;28;20024;-73
2022/08/21 14:29:19;;;;;;;4.60;1.90;;;;;;;;;;5091732;28;20066;-72
2022/08/21 14:31:50;;;;;;;4.65;2.60;;;;;;;;;;5091188;28;20480;-72
2022/08/21 14:34:17;;;;;;;7.63;3.17;;;;;;;;;;5093056;28;20020;-72
2022/08/21 14:36:43;;;;;;;6.32;2.53;;;;;;;;;;5092902;28;20024;-72
2022/08/21 14:39:10;;;;;;;6.75;2.20;;;;;;;;;;5096145;28;20103;-72
2022/08/21 14:41:36;;;;;;;3.30;1.85;;;;;;;;;;5096816;28;20038;-72
2022/08/21 14:44:03;;;;;;;5.82;2.47;;;;;;;;;;5095362;28;20416;-72
2022/08/21 14:46:31;;;;;;;12.23;3.17;;;;;;;;;;5096352;28;20024;-72
2022/08/21 14:48:58;;;;;;;5.70;2.15;;;;;;;;;;5096583;28;20022;-72
2022/08/21 14:51:24;;;;;;;4.65;2.30;;;;;;;;;;5095952;28;20048;-72
2022/08/21 14:53:50;;;;;;;3.55;2.00;;;;;;;;;;5096478;28;20028;-72
2022/08/21 14:56:16;;;;;;;6.10;2.15;;;;;;;;;;5096399;28;20484;-73
2022/08/21 14:58:44;;;;;;;6.18;2.35;;;;;;;;;;5096031;28;20028;-73
2022/08/21 15:01:12;;;;;;;7.93;2.45;;;;;;;;;;5094997;28;20035;-73
2022/08/21 15:03:38;;;;;;;5.10;2.50;;;;;;;;;;5096263;28;20511;-73
2022/08/21 15:06:05;;;;;;;5.78;2.70;;;;;;;;;;5095839;28;20028;-73
2022/08/21 15:08:32;;;;;;;4.57;2.60;;;;;;;;;;5096460;28;20095;-72
2022/08/21 15:10:59;;;;;;;11.32;3.28;;;;;;;;;;5096033;28;20036;-75
2022/08/21 15:13:25;;;;;;;11.15;3.40;;;;;;;;;;5095834;28;20024;-73
2022/08/21 15:15:52;;;;;;;6.40;3.45;;;;;;;;;;5096071;28;20035;-75
2022/08/21 15:18:19;;;;;;;7.97;3.50;;;;;;;;;;5094672;28;20024;-73
2022/08/21 15:20:45;;;;;;;10.05;4.28;;;;;;;;;;5095685;28;20103;-73
2022/08/21 15:23:11;;;;;;;9.15;4.13;;;;;;;;;;5096018;28;20112;-73
2022/08/21 15:25:40;;;;;;;8.25;3.25;;;;;;;;;;5095970;28;20032;-73
2022/08/21 15:28:07;;;;;;;6.88;3.00;;;;;;;;;;5095433;28;20484;-73
2022/08/21 15:30:33;;;;;;;7.53;3.70;;;;;;;;;;5095804;28;20032;-73
2022/08/21 15:32:59;;;;;;;12.23;3.22;;;;;;;;;;5095820;28;20077;-73
2022/08/21 15:36:18;;;;;;;10.00;3.78;;;;;;;;;;5111901;27;20478;-73
2022/08/21 15:40:30;;;;;;;12.63;3.63;;;;;;;;;;5111121;27;20396;-73
2022/08/21 15:43:00;;;;;;;9.15;3.50;;;;;;;;;;5111397;28;20024;-73
2022/08/21 15:45:26;;;;;;;8.88;3.65;;;;;;;;;;5111228;28;20517;-72
2022/08/21 15:47:53;;;;;;;9.48;3.70;;;;;;;;;;5110639;28;20094;-73
2022/08/21 15:50:19;;;;;;;8.98;3.58;;;;;;;;;;5111064;28;20024;-72
2022/08/21 15:52:46;;;;;;;5.80;2.20;;;;;;;;;;5111115;28;20049;-74
2022/08/21 15:55:12;;;;;;;8.10;2.42;;;;;;;;;;5110592;28;20046;-74
2022/08/21 15:57:43;;;;;;;6.90;2.95;;;;;;;;;;5111152;28;20020;-74
2022/08/21 16:00:17;;;;;;;8.20;2.67;;;;;;;;;;5110999;28;20480;-74
2022/08/21 16:02:46;;;;;;;6.90;2.60;;;;;;;;;;5110418;28;20028;-74
2022/08/21 16:05:12;;;;;;;4.82;2.55;;;;;;;;;;5110769;28;20024;-74
2022/08/21 16:07:39;;;;;;;5.10;2.63;;;;;;;;;;5109418;28;20399;-74
2022/08/21 16:12:24;;;;;;;5.80;2.85;;;;;;;;;;5111898;27;20465;-72
2022/08/21 16:15:07;;;;;;;7.03;3.05;;;;;;;;;;5111998;27;20584;-73
2022/08/21 16:17:35;;;;;;;6.57;3.33;;;;;;;;;;5109343;28;20028;-72
2022/08/21 17:27:18;;;;;;;11.02;6.30;;;;;;;;;;5152825;27;20707;-72
2022/08/21 17:31:23;;;;;;;11.68;6.45;;;;;;;;;;5070361;28;20391;-72
2022/08/21 17:33:51;;;;;;;9.70;6.15;;;;;;;;;;5070561;28;20439;-72
2022/08/21 17:36:21;;;;;;;11.38;6.95;;;;;;;;;;5070475;28;20013;-72
2022/08/21 17:38:47;;;;;;;12.82;6.20;;;;;;;;;;5070010;28;20024;-72
2022/08/21 17:41:14;;;;;;;14.43;7.05;;;;;;;;;;5070486;28;20048;-72
2022/08/21 17:43:41;;;;;;;9.10;5.80;;;;;;;;;;5069968;28;20079;-72
2022/08/21 17:46:07;;;;;;;9.77;5.50;;;;;;;;;;5052460;28;20503;-72
2022/08/21 17:48:47;;;;;;;8.02;5.47;;;;;;;;;;5071181;28;20724;-73
2022/08/21 17:53:15;;;;;;;8.90;4.88;;;;;;;;;;5111061;27;20389;-71
2022/08/21 17:55:41;;;;;;;10.13;5.65;;;;;;;;;;5111091;28;20020;-72
2022/08/21 17:58:09;;;;;;;11.65;5.82;;;;;;;;;;5109316;28;20028;-72
2022/08/21 18:02:13;;;;;;;11.20;6.32;;;;;;;;;;5111222;27;20388;-72
2022/08/21 18:04:39;;;;;;;11.45;5.80;;;;;;;;;;5110880;28;20034;-72
2022/08/21 18:07:06;;;;;;;12.40;5.80;;;;;;;;;;5111172;28;20024;-72
2022/08/21 18:12:23;;;;;;;10.90;5.38;;;;;;;;;;5111357;27;20736;-73